createdAt,value
2018-12-08T00:02:27.856Z,1.67
2018-12-08T00:04:57.825Z,2.12
2018-12-08T00:07:27.629Z,2.27
2018-12-08T00:10:02.264Z,2.08
2018-12-08T00:12:38.112Z,2.15
2018-12-08T00:15:14.384Z,2.17
2018-12-08T00:17:43.879Z,1.92
2018-12-08T00:20:14.204Z,2.25
2018-12-08T00:22:52.098Z,1.92
2018-12-08T00:25:30.950Z,2.43
2018-12-08T00:28:08.579Z,2.57
2018-12-08T00:31:52.791Z,2.23
2018-12-08T00:37:25.295Z,2.40
2018-12-08T00:39:57.736Z,2.37
2018-12-08T00:42:27.836Z,2.13
2018-12-08T00:45:06.909Z,2.22
2018-12-08T00:47:46.393Z,1.87
2018-12-08T00:50:17.922Z,1.90
2018-12-08T00:52:51.557Z,1.95
2018-12-08T00:55:22.406Z,1.93
2018-12-08T00:57:52.810Z,2.30
2018-12-08T01:00:26.756Z,2.53
2018-12-08T01:03:00.095Z,3.27
2018-12-08T01:05:36.259Z,3.30
2018-12-08T01:08:16.619Z,3.67
2018-12-08T01:10:47.244Z,2.47
2018-12-08T01:13:23.455Z,3.40
2018-12-08T01:15:58.960Z,2.30
2018-12-08T01:18:29.630Z,2.57
2018-12-08T01:20:59.225Z,2.23
2018-12-08T01:23:33.715Z,2.37
2018-12-08T01:26:12.575Z,2.80
2018-12-08T01:28:43.151Z,2.30
2018-12-08T01:31:20.355Z,1.90
2018-12-08T01:33:58.003Z,2.23
2018-12-08T01:36:32.257Z,1.80
2018-12-08T01:39:10.861Z,2.20
2018-12-08T01:41:52.249Z,2.20
2018-12-08T01:44:35.646Z,2.50
2018-12-08T01:47:05.938Z,2.40
2018-12-08T01:49:38.118Z,1.70
2018-12-08T01:52:15.127Z,2.08
2018-12-08T01:54:52.073Z,2.30
2018-12-08T01:57:24.014Z,1.80
2018-12-08T02:00:04.491Z,1.75
2018-12-08T02:02:38.694Z,1.67
2018-12-08T02:05:16.279Z,2.00
2018-12-08T02:08:00.911Z,1.83
2018-12-08T02:10:42.990Z,1.93
2018-12-08T02:13:20.792Z,2.00
2018-12-08T02:18:49.550Z,1.73
2018-12-08T02:21:18.738Z,2.07
2018-12-08T02:23:48.922Z,1.80
2018-12-08T02:26:18.071Z,2.30
2018-12-08T02:28:50.327Z,1.87
2018-12-08T02:31:19.528Z,2.93
2018-12-08T02:33:48.683Z,2.87
2018-12-08T02:36:17.892Z,2.67
2018-12-08T02:39:06.559Z,3.13
2018-12-08T02:41:40.078Z,2.70
2018-12-08T02:44:10.458Z,2.83
2018-12-08T02:46:40.911Z,2.80
2018-12-08T02:49:14.623Z,3.13
2018-12-08T02:51:47.118Z,2.90
2018-12-08T02:54:21.414Z,3.43
2018-12-08T02:56:53.153Z,2.80
2018-12-08T02:59:30.573Z,3.33
2018-12-08T03:04:49.263Z,2.70
2018-12-08T03:07:18.527Z,3.67
2018-12-08T03:09:47.852Z,3.03
2018-12-08T03:12:17.010Z,3.60
2018-12-08T03:14:46.433Z,3.33
2018-12-08T03:17:15.514Z,3.33
2018-12-08T03:19:44.560Z,4.33
2018-12-08T03:22:13.765Z,4.10
2018-12-08T03:24:44.679Z,2.90
2018-12-08T03:27:15.175Z,3.70
2018-12-08T03:29:46.219Z,4.23
2018-12-08T03:32:16.433Z,3.47
2018-12-08T03:34:45.628Z,3.60
2018-12-08T03:37:15.356Z,3.40
2018-12-08T03:39:44.426Z,3.23
2018-12-08T03:42:13.361Z,3.30
2018-12-08T03:44:42.474Z,3.80
2018-12-08T03:47:11.551Z,3.30
2018-12-08T03:49:41.335Z,3.33
2018-12-08T03:52:10.709Z,3.85
2018-12-08T03:54:39.757Z,3.17
2018-12-08T03:57:08.890Z,3.83
2018-12-08T03:59:56.113Z,3.12
2018-12-08T04:02:26.096Z,3.40
2018-12-08T04:05:01.388Z,4.37
2018-12-08T04:07:50.221Z,3.57
2018-12-08T04:10:29.137Z,3.73
2018-12-08T04:13:06.388Z,3.60
2018-12-08T04:18:36.937Z,2.73
2018-12-08T04:21:14.931Z,3.20
2018-12-08T04:23:49.145Z,3.30
2018-12-08T04:26:24.099Z,3.47
2018-12-08T04:29:06.930Z,4.27
2018-12-08T04:31:38.066Z,3.47
2018-12-08T04:34:27.190Z,3.17
2018-12-08T04:37:00.596Z,4.70
2018-12-08T04:39:53.103Z,2.70
2018-12-08T04:42:24.517Z,3.23
2018-12-08T04:45:09.823Z,3.27
2018-12-08T04:47:46.149Z,3.03
2018-12-08T04:50:27.082Z,2.80
2018-12-08T04:55:43.468Z,2.90
2018-12-08T04:58:16.762Z,2.80
2018-12-08T05:00:54.256Z,3.37
2018-12-08T05:03:27.627Z,2.87
2018-12-08T05:06:00.409Z,3.03
2018-12-08T05:08:36.869Z,3.00
2018-12-08T05:11:07.396Z,3.33
2018-12-08T05:13:38.957Z,3.50
2018-12-08T05:16:09.152Z,2.93
2018-12-08T05:18:40.601Z,2.40
2018-12-08T05:21:18.482Z,3.43
2018-12-08T05:23:54.509Z,2.70
2018-12-08T05:26:25.930Z,2.90
2018-12-08T05:28:58.783Z,2.80
2018-12-08T05:31:33.239Z,2.90
2018-12-08T05:34:03.616Z,3.60
2018-12-08T05:36:32.894Z,3.30
2018-12-08T05:39:05.608Z,2.67
2018-12-08T05:41:36.343Z,3.33
2018-12-08T05:44:05.882Z,3.27
2018-12-08T05:46:36.088Z,3.35
2018-12-08T05:49:07.989Z,3.10
2018-12-08T05:51:38.964Z,3.00
2018-12-08T05:54:08.579Z,2.52
2018-12-08T05:56:37.712Z,3.52
2018-12-08T05:59:06.768Z,3.00
2018-12-08T06:01:36.891Z,3.17
2018-12-08T06:04:06.427Z,3.40
2018-12-08T06:06:35.893Z,3.07
2018-12-08T06:09:06.888Z,3.17
2018-12-08T06:11:35.979Z,2.67
2018-12-08T06:14:05.854Z,3.03
2018-12-08T06:16:34.791Z,3.43
2018-12-08T06:19:04.617Z,2.70
2018-12-08T06:21:38.027Z,2.85
2018-12-08T06:24:07.236Z,2.95
2018-12-08T06:26:43.995Z,2.55
2018-12-08T06:29:13.741Z,2.17
2018-12-08T06:31:42.735Z,2.87
2018-12-08T06:34:11.872Z,2.90
2018-12-08T06:36:41.150Z,2.67
2018-12-08T06:39:10.237Z,2.60
2018-12-08T06:41:39.227Z,2.30
2018-12-08T06:44:08.606Z,2.33
2018-12-08T06:46:37.623Z,3.27
2018-12-08T06:49:06.938Z,2.93
2018-12-08T06:51:36.075Z,3.00
2018-12-08T06:54:05.247Z,3.02
2018-12-08T06:56:34.235Z,2.73
2018-12-08T06:59:04.078Z,2.53
2018-12-08T07:01:33.201Z,2.87
2018-12-08T07:04:03.627Z,2.60
2018-12-08T07:06:33.452Z,3.83
2018-12-08T07:09:03.344Z,2.58
2018-12-08T07:11:34.162Z,2.60
2018-12-08T07:14:03.298Z,3.37
2018-12-08T07:16:33.099Z,2.52
2018-12-08T07:19:03.212Z,2.60
2018-12-08T07:21:32.207Z,2.37
2018-12-08T07:24:01.935Z,3.00
2018-12-08T07:26:31.091Z,3.67
2018-12-08T07:29:00.316Z,2.83
2018-12-08T07:31:30.005Z,2.80
2018-12-08T07:33:59.787Z,2.80
2018-12-08T07:36:28.817Z,2.47
2018-12-08T07:38:59.459Z,4.47
2018-12-08T07:41:28.685Z,2.60
2018-12-08T07:43:57.838Z,2.17
2018-12-08T07:46:28.202Z,2.50
2018-12-08T07:48:58.201Z,2.30
2018-12-08T07:51:27.470Z,2.10
2018-12-08T07:53:57.545Z,2.90
2018-12-08T07:56:26.594Z,2.20
2018-12-08T08:02:06.458Z,2.60
2018-12-08T08:04:40.275Z,3.90
2018-12-08T08:07:14.074Z,2.63
2018-12-08T08:09:45.518Z,2.90
2018-12-08T08:12:18.041Z,2.85
2018-12-08T08:17:35.190Z,2.90
2018-12-08T08:20:06.202Z,3.10
2018-12-08T08:22:35.371Z,2.50
2018-12-08T08:25:05.711Z,2.30
2018-12-08T08:27:35.041Z,2.30
2018-12-08T08:30:05.570Z,2.87
2018-12-08T08:32:35.583Z,2.25
2018-12-08T08:35:05.543Z,3.22
2018-12-08T08:37:35.931Z,3.20
2018-12-08T08:40:08.086Z,2.40
2018-12-08T08:42:38.667Z,2.53
2018-12-08T08:45:09.318Z,2.70
2018-12-08T08:47:38.406Z,2.83
2018-12-08T08:50:10.781Z,2.43
2018-12-08T08:52:41.085Z,3.02
2018-12-08T08:55:14.080Z,2.85
2018-12-08T08:57:43.359Z,2.33
2018-12-08T09:00:12.900Z,2.27
2018-12-08T09:02:42.238Z,5.17
2018-12-08T09:05:12.354Z,2.47
2018-12-08T09:10:24.636Z,2.80
2018-12-08T09:12:54.010Z,2.00
2018-12-08T09:15:23.812Z,2.20
2018-12-08T09:17:53.428Z,4.00
2018-12-08T09:20:23.056Z,2.55
2018-12-08T09:22:53.998Z,2.83
2018-12-08T09:28:03.858Z,2.13
2018-12-08T09:30:33.915Z,2.10
2018-12-08T09:33:06.960Z,1.90
2018-12-08T09:35:37.129Z,1.60
2018-12-08T09:38:08.535Z,1.30
2018-12-08T09:40:39.276Z,1.80
2018-12-08T09:43:16.161Z,2.37
2018-12-08T09:45:47.841Z,2.10
2018-12-08T09:48:17.330Z,2.10
2018-12-08T09:50:47.268Z,1.70
2018-12-08T09:53:19.026Z,1.60
2018-12-08T09:55:48.514Z,2.17
2018-12-08T09:58:17.953Z,2.83
2018-12-08T10:00:47.363Z,1.92
2018-12-08T10:03:16.701Z,1.97
2018-12-08T10:05:46.343Z,2.10
2018-12-08T10:08:15.578Z,2.00
2018-12-08T10:10:44.938Z,1.90
2018-12-08T10:13:14.227Z,2.30
2018-12-08T10:15:43.744Z,2.30
2018-12-08T10:18:13.261Z,1.30
2018-12-08T10:23:27.145Z,2.00
2018-12-08T10:25:57.747Z,1.67
2018-12-08T10:28:27.747Z,1.70
2018-12-08T10:30:59.375Z,1.40
2018-12-08T10:33:31.150Z,1.50
2018-12-08T10:36:02.336Z,1.90
2018-12-08T10:38:32.278Z,2.20
2018-12-08T10:41:02.903Z,1.80
2018-12-08T10:43:32.916Z,2.00
2018-12-08T10:46:03.123Z,1.87
2018-12-08T10:48:35.188Z,1.70
2018-12-08T10:51:06.299Z,1.90
2018-12-08T10:56:18.636Z,2.33
2018-12-08T10:58:48.724Z,1.93
2018-12-08T11:01:22.519Z,2.00
2018-12-08T11:03:52.553Z,2.07
2018-12-08T11:06:24.034Z,1.40
2018-12-08T11:08:54.203Z,2.70
2018-12-08T11:11:24.496Z,3.23
2018-12-08T11:13:56.861Z,1.53
2018-12-08T11:16:27.086Z,1.87
2018-12-08T11:18:57.319Z,1.70
2018-12-08T11:21:27.480Z,1.72
2018-12-08T11:23:58.033Z,1.47
2018-12-08T11:26:28.014Z,1.60
2018-12-08T11:28:57.432Z,1.70
2018-12-08T11:31:26.688Z,1.77
2018-12-08T11:33:55.967Z,1.30
2018-12-08T11:36:25.269Z,1.47
2018-12-08T11:38:58.371Z,1.00
2018-12-08T11:41:27.663Z,1.83
2018-12-08T11:43:56.887Z,1.70
2018-12-08T11:46:26.271Z,1.60
2018-12-08T11:48:56.958Z,1.63
2018-12-08T11:51:27.590Z,1.40
2018-12-08T11:53:58.583Z,1.37
2018-12-08T11:56:29.157Z,1.50
2018-12-08T11:58:58.918Z,2.00
2018-12-08T12:01:29.584Z,1.40
2018-12-08T12:03:59.155Z,1.70
2018-12-08T12:06:28.604Z,1.50
2018-12-08T12:08:57.846Z,1.83
2018-12-08T12:11:28.290Z,2.10
2018-12-08T12:13:57.844Z,1.70
2018-12-08T12:16:28.673Z,1.80
2018-12-08T12:18:58.827Z,2.22
2018-12-08T12:21:29.174Z,4.40
2018-12-08T12:23:58.538Z,2.80
2018-12-08T12:26:28.027Z,2.40
2018-12-08T12:28:57.694Z,2.00
2018-12-08T12:31:28.404Z,2.07
2018-12-08T12:33:57.925Z,1.47
2018-12-08T12:36:27.554Z,1.80
2018-12-08T12:38:57.452Z,1.80
2018-12-08T12:44:11.131Z,2.03
2018-12-08T12:46:40.701Z,2.17
2018-12-08T12:49:11.095Z,2.40
2018-12-08T12:51:44.648Z,2.07
2018-12-08T12:54:14.121Z,1.80
2018-12-08T12:56:44.883Z,2.33
2018-12-08T12:59:15.183Z,2.52
2018-12-08T13:01:46.271Z,2.52
2018-12-08T13:04:17.106Z,2.37
2018-12-08T13:06:47.510Z,4.42
2018-12-08T13:09:16.563Z,2.75
2018-12-08T13:11:46.634Z,3.00
2018-12-08T13:14:15.393Z,3.00
2018-12-08T13:16:44.263Z,3.50
2018-12-08T13:19:12.986Z,3.47
2018-12-08T13:21:42.570Z,3.23
2018-12-08T13:24:11.453Z,3.20
2018-12-08T13:26:40.228Z,2.00
2018-12-08T13:29:09.022Z,2.40
2018-12-08T13:31:37.747Z,2.17
2018-12-08T13:34:28.129Z,2.63
2018-12-08T13:36:56.887Z,2.70
2018-12-08T13:39:25.658Z,2.60
2018-12-08T13:41:54.398Z,2.25
2018-12-08T13:44:34.013Z,2.53
2018-12-08T13:47:03.650Z,2.27
2018-12-08T13:49:33.054Z,2.30
2018-12-08T13:52:03.007Z,1.93
2018-12-08T13:54:43.213Z,2.67
2018-12-08T13:57:12.023Z,2.53
2018-12-08T13:59:40.782Z,3.10
2018-12-08T14:02:09.549Z,4.10
2018-12-08T14:04:38.227Z,3.40
2018-12-08T14:07:06.893Z,3.70
2018-12-08T14:09:35.711Z,2.65
2018-12-08T14:12:04.491Z,2.40
2018-12-08T14:14:33.230Z,3.20
2018-12-08T14:17:03.377Z,2.72
2018-12-08T14:19:32.126Z,3.10
2018-12-08T14:22:02.071Z,3.37
2018-12-08T14:24:30.871Z,3.85
2018-12-08T14:26:59.647Z,2.42
2018-12-08T14:29:28.464Z,2.77
2018-12-08T14:31:57.326Z,2.52
2018-12-08T14:34:26.069Z,3.02
2018-12-08T14:36:54.768Z,2.83
2018-12-08T14:39:23.461Z,2.02
2018-12-08T14:41:52.178Z,2.30
2018-12-08T14:44:21.022Z,3.60
2018-12-08T14:46:49.847Z,2.63
2018-12-08T14:49:18.606Z,2.98
2018-12-08T14:51:47.658Z,2.63
2018-12-08T14:54:17.698Z,2.67
2018-12-08T14:56:46.618Z,3.00
2018-12-08T14:59:15.440Z,2.50
2018-12-08T15:01:44.913Z,2.30
2018-12-08T15:04:13.925Z,2.33
2018-12-08T15:06:42.706Z,1.83
2018-12-08T15:09:11.433Z,1.52
2018-12-08T15:11:40.171Z,2.03
2018-12-08T15:14:09.002Z,3.13
2018-12-08T15:16:37.796Z,1.50
2018-12-08T15:19:06.534Z,2.00
2018-12-08T15:21:35.350Z,1.70
2018-12-08T15:24:04.352Z,1.55
2018-12-08T15:26:33.058Z,2.40
2018-12-08T15:29:02.622Z,1.70
2018-12-08T15:31:31.405Z,2.60
2018-12-08T15:34:00.161Z,1.85
2018-12-08T15:36:30.849Z,1.63
2018-12-08T15:38:59.730Z,2.17
2018-12-08T15:41:28.544Z,2.27
2018-12-08T15:43:57.303Z,2.00
2018-12-08T15:46:26.086Z,1.87
2018-12-08T15:48:55.037Z,2.00
2018-12-08T15:51:24.000Z,2.20
2018-12-08T15:53:53.218Z,2.10
2018-12-08T15:56:21.945Z,2.20
2018-12-08T15:58:50.734Z,1.90
2018-12-08T16:01:19.434Z,1.80
2018-12-08T16:03:48.383Z,2.20
2018-12-08T16:06:17.141Z,1.80
2018-12-08T16:08:45.917Z,1.67
2018-12-08T16:11:14.634Z,1.60
2018-12-08T16:13:43.771Z,2.00
2018-12-08T16:16:12.696Z,2.30
2018-12-08T16:18:42.317Z,1.97
2018-12-08T16:21:11.055Z,2.87
2018-12-08T16:23:39.791Z,2.10
2018-12-08T16:26:08.530Z,3.20
2018-12-08T16:28:37.390Z,2.30
2018-12-08T16:31:07.169Z,2.43
2018-12-08T16:33:36.961Z,2.17
2018-12-08T16:36:05.681Z,2.60
2018-12-08T16:38:34.603Z,2.45
2018-12-08T16:41:03.442Z,2.40
2018-12-08T16:43:32.747Z,2.80
2018-12-08T16:46:02.058Z,2.10
2018-12-08T16:48:30.838Z,1.93
2018-12-08T16:51:00.677Z,2.70
2018-12-08T16:53:29.734Z,2.10
2018-12-08T16:56:04.705Z,1.77
2018-12-08T16:58:33.470Z,2.70
2018-12-08T17:01:02.469Z,2.60
2018-12-08T17:03:32.460Z,2.60
2018-12-08T17:06:02.753Z,2.22
2018-12-08T17:08:31.574Z,2.77
2018-12-08T17:11:00.463Z,3.27
2018-12-08T17:13:29.317Z,2.57
2018-12-08T17:15:58.351Z,3.00
2018-12-08T17:18:27.102Z,2.85
2018-12-08T17:20:55.936Z,2.47
2018-12-08T17:23:24.835Z,3.30
2018-12-08T17:25:53.653Z,2.37
2018-12-08T17:28:23.417Z,2.80
2018-12-08T17:30:52.193Z,3.90
2018-12-08T17:33:21.211Z,2.93
2018-12-08T17:35:50.102Z,3.02
2018-12-08T17:38:18.869Z,2.97
2018-12-08T17:40:47.598Z,4.12
2018-12-08T17:43:16.318Z,5.63
2018-12-08T17:48:24.874Z,2.43
2018-12-08T17:50:53.631Z,3.60
2018-12-08T17:53:22.417Z,2.27
2018-12-08T17:55:52.009Z,2.80
2018-12-08T17:58:20.754Z,3.03
2018-12-08T18:00:49.481Z,2.63
2018-12-08T18:03:18.257Z,2.30
2018-12-08T18:05:46.970Z,2.23
2018-12-08T18:08:23.066Z,2.33
2018-12-08T18:10:51.845Z,2.08
2018-12-08T18:13:20.848Z,3.33
2018-12-08T18:15:49.507Z,2.73
2018-12-08T18:18:18.246Z,3.55
2018-12-08T18:20:47.269Z,3.50
2018-12-08T18:23:15.973Z,4.00
2018-12-08T18:25:44.717Z,4.60
2018-12-08T18:28:13.426Z,4.05
2018-12-08T18:30:42.214Z,5.30
2018-12-08T18:33:10.944Z,6.37
2018-12-08T18:35:39.686Z,5.00
2018-12-08T18:38:08.486Z,4.60
2018-12-08T18:40:37.299Z,6.10
2018-12-08T18:43:06.054Z,5.17
2018-12-08T18:45:34.840Z,5.33
2018-12-08T18:48:04.093Z,4.40
2018-12-08T18:50:32.843Z,4.53
2018-12-08T18:53:02.136Z,3.80
2018-12-08T18:55:30.878Z,3.30
2018-12-08T18:57:59.638Z,4.43
2018-12-08T19:00:28.405Z,4.43
2018-12-08T19:02:57.254Z,4.17
2018-12-08T19:05:26.002Z,5.10
2018-12-08T19:07:54.700Z,6.77
2018-12-08T19:10:23.470Z,5.57
2018-12-08T19:12:52.250Z,3.50
2018-12-08T19:15:21.083Z,5.47
2018-12-08T19:17:49.846Z,5.53
2018-12-08T19:20:18.665Z,6.70
2018-12-08T19:22:48.438Z,4.40
2018-12-08T19:25:17.225Z,4.20
2018-12-08T19:27:45.929Z,4.53
2018-12-08T19:30:14.737Z,4.85
2018-12-08T19:32:43.502Z,4.57
2018-12-08T19:37:52.117Z,4.47
2018-12-08T19:40:20.933Z,4.73
2018-12-08T19:42:49.724Z,4.00
2018-12-08T19:45:18.462Z,3.17
2018-12-08T19:47:47.585Z,3.73
2018-12-08T19:50:16.363Z,4.30
2018-12-08T19:52:46.120Z,3.65
2018-12-08T19:55:14.865Z,3.60
2018-12-08T19:57:43.623Z,3.80
2018-12-08T20:00:13.442Z,3.47
2018-12-08T20:05:22.066Z,4.70
2018-12-08T20:07:51.123Z,4.15
2018-12-08T20:10:19.814Z,3.07
2018-12-08T20:12:48.527Z,3.37
2018-12-08T20:15:17.699Z,4.55
2018-12-08T20:17:46.398Z,3.93
2018-12-08T20:20:15.168Z,3.42
2018-12-08T20:22:43.966Z,3.62
2018-12-08T20:25:12.710Z,3.73
2018-12-08T20:27:41.433Z,4.20
2018-12-08T20:30:10.244Z,4.20
2018-12-08T20:32:38.986Z,4.67
2018-12-08T20:35:07.861Z,4.70
2018-12-08T20:37:36.559Z,5.15
2018-12-08T20:40:06.126Z,4.35
2018-12-08T20:42:34.851Z,4.77
2018-12-08T20:45:04.721Z,5.30
2018-12-08T20:47:33.475Z,4.83
2018-12-08T20:50:02.921Z,3.80
2018-12-08T20:55:11.493Z,4.33
2018-12-08T20:57:40.177Z,4.40
2018-12-08T21:00:08.974Z,3.47
2018-12-08T21:02:39.037Z,3.40
2018-12-08T21:05:07.775Z,4.87
2018-12-08T21:07:37.496Z,5.28
2018-12-08T21:10:06.699Z,3.70
2018-12-08T21:12:35.418Z,3.90
2018-12-08T21:15:04.502Z,4.10
2018-12-08T21:17:33.229Z,3.72
2018-12-08T21:20:02.894Z,4.00
2018-12-08T21:22:31.628Z,4.10
2018-12-08T21:25:00.353Z,3.60
2018-12-08T21:27:29.250Z,3.83
2018-12-08T21:29:58.230Z,4.70
2018-12-08T21:32:27.153Z,2.87
2018-12-08T21:34:56.951Z,2.37
2018-12-08T21:37:25.926Z,2.73
2018-12-08T21:39:54.699Z,3.40
2018-12-08T21:42:23.837Z,2.50
2018-12-08T21:44:52.844Z,2.60
2018-12-08T21:47:21.660Z,2.92
2018-12-08T21:49:50.975Z,2.50
2018-12-08T21:52:19.697Z,2.45
2018-12-08T21:54:48.439Z,2.33
2018-12-08T21:57:17.145Z,2.50
2018-12-08T21:59:45.878Z,2.20
2018-12-08T22:02:14.710Z,2.10
2018-12-08T22:04:43.469Z,1.73
2018-12-08T22:07:12.161Z,1.97
2018-12-08T22:09:40.874Z,2.33
2018-12-08T22:12:09.602Z,2.00
2018-12-08T22:14:42.536Z,2.40
2018-12-08T22:17:18.145Z,1.37
2018-12-08T22:19:47.889Z,2.47
2018-12-08T22:22:16.868Z,1.75
2018-12-08T22:24:46.334Z,1.65
2018-12-08T22:27:15.195Z,1.70
2018-12-08T22:29:44.082Z,2.03
2018-12-08T22:32:12.863Z,1.40
2018-12-08T22:34:41.582Z,1.37
2018-12-08T22:37:10.312Z,1.70
2018-12-08T22:39:39.113Z,0.98
2018-12-08T22:42:07.827Z,1.47
2018-12-08T22:44:36.557Z,1.20
2018-12-08T22:49:48.559Z,1.20
2018-12-08T22:52:17.275Z,1.10
2018-12-08T22:54:46.069Z,1.20
2018-12-08T22:57:14.818Z,1.20
2018-12-08T22:59:43.661Z,1.10
2018-12-08T23:04:52.146Z,1.10
2018-12-08T23:10:00.757Z,0.90
2018-12-08T23:12:29.563Z,1.00
2018-12-08T23:14:58.263Z,1.57
2018-12-08T23:17:26.982Z,1.77
2018-12-08T23:22:35.931Z,1.23
2018-12-08T23:25:05.421Z,1.50
2018-12-08T23:27:34.174Z,1.00
2018-12-08T23:30:04.366Z,0.90
2018-12-08T23:32:34.325Z,1.30
2018-12-08T23:35:04.991Z,1.13
2018-12-08T23:37:33.886Z,1.10
2018-12-08T23:40:03.574Z,1.30
2018-12-08T23:42:32.478Z,1.47
2018-12-08T23:45:02.297Z,2.17
2018-12-08T23:47:31.305Z,1.20
2018-12-08T23:50:00.103Z,1.00
2018-12-08T23:52:30.043Z,1.50
2018-12-08T23:54:58.898Z,1.10
2018-12-08T23:57:27.661Z,1.40
2018-12-08T23:59:56.569Z,1.30
